createdAt,value
2023-05-19T00:00:48.991Z,98716.66
2023-05-19T00:01:55.236Z,98720.56
2023-05-19T00:02:58.509Z,98719.84
2023-05-19T00:04:05.568Z,98715.63
2023-05-19T00:05:10.573Z,98714.75
2023-05-19T00:06:14.145Z,98713.63
2023-05-19T00:07:26.360Z,98715.38
2023-05-19T00:08:32.247Z,98713.91
2023-05-19T00:09:35.340Z,98711.16
2023-05-19T00:10:39.286Z,98716.94
2023-05-19T00:11:42.371Z,98712.59
2023-05-19T00:12:45.717Z,98711.84
2023-05-19T00:13:49.950Z,98709.81
2023-05-19T00:14:52.973Z,98713.31
2023-05-19T00:15:56.494Z,98710.25
2023-05-19T00:17:02.365Z,98712.84
2023-05-19T00:18:05.337Z,98708.66
2023-05-19T00:19:11.195Z,98707.94
2023-05-19T00:20:14.587Z,98704.59
2023-05-19T00:21:17.674Z,98701.72
2023-05-19T00:22:20.658Z,98700.25
2023-05-19T00:23:23.469Z,98700.25
2023-05-19T00:24:26.470Z,98704.47
2023-05-19T00:25:29.378Z,98705.00
2023-05-19T00:26:32.272Z,98701.41
2023-05-19T00:27:35.266Z,98708.22
2023-05-19T00:28:38.380Z,98706.75
2023-05-19T00:29:41.261Z,98702.84
2023-05-19T00:30:44.244Z,98701.41
2023-05-19T00:31:47.141Z,98707.75
2023-05-19T00:32:50.304Z,98706.31
2023-05-19T00:33:53.530Z,98705.00
2023-05-19T00:34:56.370Z,98698.78
2023-05-19T00:35:59.223Z,98702.25
2023-05-19T00:37:02.220Z,98700.25
2023-05-19T00:38:05.089Z,98701.72
2023-05-19T00:39:08.066Z,98697.50
2023-05-19T00:40:11.174Z,98696.03
2023-05-19T00:41:14.511Z,98696.19
2023-05-19T00:42:17.568Z,98694.00
2023-05-19T00:43:20.432Z,98696.94
2023-05-19T00:44:23.433Z,98701.84
2023-05-19T00:45:26.286Z,98703.88
2023-05-19T00:46:30.627Z,98694.19
2023-05-19T00:47:33.745Z,98705.31
2023-05-19T00:48:36.750Z,98698.37
2023-05-19T00:49:39.672Z,98697.66
2023-05-19T00:50:43.015Z,98695.47
2023-05-19T00:51:46.399Z,98701.72
2023-05-19T00:52:49.312Z,98705.91
2023-05-19T00:53:52.670Z,98697.66
2023-05-19T00:54:56.190Z,98697.50
2023-05-19T00:56:00.959Z,98700.72
2023-05-19T00:57:04.706Z,98699.25
2023-05-19T00:58:11.116Z,98695.31
2023-05-19T00:59:14.140Z,98693.72
2023-05-19T01:00:17.504Z,98693.00
2023-05-19T01:01:21.985Z,98699.94
2023-05-19T01:02:25.027Z,98693.72
2023-05-19T01:03:31.208Z,98696.31
2023-05-19T01:04:38.162Z,98693.72
2023-05-19T01:05:42.598Z,98693.00
2023-05-19T01:06:47.013Z,98697.78
2023-05-19T01:07:53.941Z,98697.78
2023-05-19T01:08:57.676Z,98697.19
2023-05-19T01:10:00.761Z,98699.06
2023-05-19T01:11:08.390Z,98694.12
2023-05-19T01:12:11.341Z,98694.88
2023-05-19T01:13:14.763Z,98690.81
2023-05-19T01:14:19.099Z,98699.50
2023-05-19T01:15:23.054Z,98693.09
2023-05-19T01:16:32.546Z,98694.41
2023-05-19T01:18:08.726Z,98692.25
2023-05-19T01:19:46.996Z,98690.03
2023-05-19T01:20:59.766Z,98697.56
2023-05-19T01:22:14.448Z,98695.53
2023-05-19T01:24:04.078Z,98695.41
2023-05-19T01:25:13.341Z,98698.56
2023-05-19T01:26:34.897Z,98693.66
2023-05-19T01:27:56.203Z,98698.44
2023-05-19T01:29:17.185Z,98699.88
2023-05-19T01:30:27.599Z,98694.22
2023-05-19T01:31:31.643Z,98694.22
2023-05-19T01:32:36.237Z,98696.84
2023-05-19T01:33:43.200Z,98690.75
2023-05-19T01:34:49.249Z,98698.28
2023-05-19T01:35:54.419Z,98692.63
2023-05-19T01:37:01.117Z,98700.84
2023-05-19T01:38:08.455Z,98691.59
2023-05-19T01:39:12.259Z,98694.91
2023-05-19T01:40:15.840Z,98700.97
2023-05-19T01:41:22.666Z,98699.53
2023-05-19T01:42:27.881Z,98706.47
2023-05-19T01:43:31.590Z,98692.00
2023-05-19T01:44:34.661Z,98697.19
2023-05-19T01:45:37.819Z,98704.16
2023-05-19T01:46:41.783Z,98700.53
2023-05-19T01:47:52.065Z,98696.47
2023-05-19T01:48:56.223Z,98699.94
2023-05-19T01:49:59.189Z,98700.13
2023-05-19T01:51:02.364Z,98702.88
2023-05-19T01:52:05.642Z,98702.28
2023-05-19T01:53:08.925Z,98700.41
2023-05-19T01:54:11.860Z,98695.63
2023-05-19T01:55:14.828Z,98696.34
2023-05-19T01:56:26.221Z,98695.63
2023-05-19T01:57:32.592Z,98696.78
2023-05-19T01:58:51.085Z,98696.63
2023-05-19T01:59:56.974Z,98698.66
2023-05-19T02:01:18.526Z,98697.91
2023-05-19T02:02:31.477Z,98695.91
2023-05-19T02:03:48.252Z,98695.16
2023-05-19T02:05:06.754Z,98692.59
2023-05-19T02:06:42.443Z,98699.38
2023-05-19T02:07:52.899Z,98697.91
2023-05-19T02:09:22.340Z,98699.38
2023-05-19T02:10:32.836Z,98697.91
2023-05-19T02:11:46.384Z,98695.91
2023-05-19T02:12:53.539Z,98695.75
2023-05-19T02:14:01.530Z,98699.06
2023-05-19T02:15:08.106Z,98694.88
2023-05-19T02:16:12.033Z,98699.50
2023-05-19T02:17:16.534Z,98702.22
2023-05-19T02:18:20.686Z,98704.25
2023-05-19T02:19:40.326Z,98698.63
2023-05-19T02:20:43.320Z,98701.38
2023-05-19T02:21:46.178Z,98694.41
2023-05-19T02:22:49.450Z,98696.59
2023-05-19T02:23:52.412Z,98688.34
2023-05-19T02:24:56.855Z,98690.91
2023-05-19T02:25:59.759Z,98691.50
2023-05-19T02:27:02.934Z,98692.81
2023-05-19T02:28:06.989Z,98694.09
2023-05-19T02:29:10.228Z,98697.56
2023-05-19T02:30:13.267Z,98694.09
2023-05-19T02:31:16.260Z,98696.13
2023-05-19T02:32:19.668Z,98693.53
2023-05-19T02:33:25.037Z,98689.66
2023-05-19T02:34:27.920Z,98689.06
2023-05-19T02:35:30.881Z,98693.66
2023-05-19T02:36:37.108Z,98693.66
2023-05-19T02:37:40.203Z,98699.75
2023-05-19T02:38:43.175Z,98689.34
2023-05-19T02:39:46.012Z,98699.59
2023-05-19T02:40:48.985Z,98690.63
2023-05-19T02:41:51.918Z,98693.53
2023-05-19T02:42:54.932Z,98695.69
2023-05-19T02:43:58.261Z,98691.91
2023-05-19T02:45:01.174Z,98688.28
2023-05-19T02:46:04.214Z,98692.34
2023-05-19T02:47:07.262Z,98688.69
2023-05-19T02:48:10.184Z,98692.75
2023-05-19T02:49:13.311Z,98685.22
2023-05-19T02:50:16.422Z,98689.84
2023-05-19T02:51:19.529Z,98683.06
2023-05-19T02:52:22.620Z,98687.25
2023-05-19T02:53:25.839Z,98677.41
2023-05-19T02:54:29.209Z,98693.91
2023-05-19T02:55:32.141Z,98686.22
2023-05-19T02:56:34.972Z,98690.25
2023-05-19T02:57:38.870Z,98686.06
2023-05-19T02:58:43.520Z,98691.56
2023-05-19T02:59:46.422Z,98695.75
2023-05-19T03:00:49.396Z,98688.97
2023-05-19T03:01:55.882Z,98686.78
2023-05-19T03:03:03.191Z,98694.31
2023-05-19T03:04:06.195Z,98688.09
2023-05-19T03:05:10.537Z,98699.09
2023-05-19T03:06:14.438Z,98696.34
2023-05-19T03:07:17.316Z,98697.78
2023-05-19T03:08:20.772Z,98693.00
2023-05-19T03:09:23.720Z,98695.44
2023-05-19T03:10:26.715Z,98700.06
2023-05-19T03:11:31.254Z,98696.16
2023-05-19T03:12:34.316Z,98700.22
2023-05-19T03:13:37.344Z,98697.47
2023-05-19T03:14:40.446Z,98700.63
2023-05-19T03:15:43.439Z,98699.16
2023-05-19T03:16:46.363Z,98701.75
2023-05-19T03:17:49.555Z,98708.72
2023-05-19T03:18:52.696Z,98699.75
2023-05-19T03:19:55.986Z,98696.84
2023-05-19T03:20:59.128Z,98699.59
2023-05-19T03:22:05.262Z,98707.84
2023-05-19T03:23:09.291Z,98707.97
2023-05-19T03:24:12.170Z,98705.41
2023-05-19T03:25:15.133Z,98705.41
2023-05-19T03:26:17.978Z,98705.97
2023-05-19T03:27:20.912Z,98700.31
2023-05-19T03:28:23.942Z,98709.44
2023-05-19T03:29:26.901Z,98703.38
2023-05-19T03:30:29.775Z,98698.28
2023-05-19T03:31:32.815Z,98702.16
2023-05-19T03:32:38.300Z,98703.47
2023-05-19T03:33:41.378Z,98699.41
2023-05-19T03:34:44.391Z,98702.91
2023-05-19T03:35:47.365Z,98698.88
2023-05-19T03:36:50.573Z,98700.91
2023-05-19T03:37:53.564Z,98698.88
2023-05-19T03:38:56.427Z,98702.50
2023-05-19T03:40:00.085Z,98707.97
2023-05-19T03:41:02.959Z,98699.16
2023-05-19T03:42:06.140Z,98709.44
2023-05-19T03:43:09.148Z,98705.41
2023-05-19T03:44:12.222Z,98706.13
2023-05-19T03:45:15.377Z,98698.03
2023-05-19T03:46:18.334Z,98696.00
2023-05-19T03:47:21.192Z,98698.19
2023-05-19T03:48:24.304Z,98699.66
2023-05-19T03:49:27.232Z,98692.69
2023-05-19T03:50:32.190Z,98696.91
2023-05-19T03:51:37.255Z,98703.13
2023-05-19T03:52:40.541Z,98696.47
2023-05-19T03:53:43.578Z,98693.91
2023-05-19T03:54:46.385Z,98700.41
2023-05-19T03:55:49.926Z,98703.16
2023-05-19T03:56:52.751Z,98698.25
2023-05-19T03:57:56.344Z,98703.75
2023-05-19T03:58:59.757Z,98697.53
2023-05-19T04:00:03.848Z,98705.03
2023-05-19T04:01:07.021Z,98707.94
2023-05-19T04:02:10.026Z,98712.13
2023-05-19T04:03:13.116Z,98706.81
2023-05-19T04:04:16.196Z,98715.22
2023-05-19T04:05:19.193Z,98704.38
2023-05-19T04:06:22.363Z,98706.56
2023-05-19T04:07:25.191Z,98710.03
2023-05-19T04:08:28.106Z,98711.31
2023-05-19T04:09:32.736Z,98708.91
2023-05-19T04:10:35.592Z,98715.97
2023-05-19T04:11:39.935Z,98711.22
2023-05-19T04:12:42.880Z,98716.88
2023-05-19T04:13:46.212Z,98715.00
2023-05-19T04:14:49.109Z,98715.00
2023-05-19T04:15:52.359Z,98713.13
2023-05-19T04:16:55.983Z,98709.22
2023-05-19T04:17:58.917Z,98718.94
2023-05-19T04:19:02.018Z,98718.34
2023-05-19T04:20:08.168Z,98720.69
2023-05-19T04:21:11.174Z,98715.91
2023-05-19T04:22:14.146Z,98716.09
2023-05-19T04:23:17.080Z,98723.03
2023-05-19T04:24:20.048Z,98720.44
2023-05-19T04:25:25.523Z,98729.56
2023-05-19T04:26:31.247Z,98718.72
2023-05-19T04:27:37.096Z,98723.06
2023-05-19T04:28:42.847Z,98725.41
2023-05-19T04:29:48.525Z,98722.78
2023-05-19T04:30:51.962Z,98724.97
2023-05-19T04:31:55.487Z,98721.06
2023-05-19T04:32:59.499Z,98725.44
2023-05-19T04:34:02.372Z,98733.28
2023-05-19T04:35:06.020Z,98728.78
2023-05-19T04:36:10.829Z,98726.34
2023-05-19T04:37:14.477Z,98738.25
2023-05-19T04:38:19.220Z,98735.03
2023-05-19T04:39:22.217Z,98735.94
2023-05-19T04:40:25.034Z,98735.50
2023-05-19T04:41:28.032Z,98738.25
2023-05-19T04:42:33.590Z,98733.94
2023-05-19T04:43:37.026Z,98739.75
2023-05-19T04:44:40.413Z,98748.91
2023-05-19T04:45:43.392Z,98742.09
2023-05-19T04:46:46.404Z,98749.19
2023-05-19T04:47:49.560Z,98735.00
2023-05-19T04:48:53.553Z,98741.38
2023-05-19T04:50:01.119Z,98743.13
2023-05-19T04:51:04.236Z,98751.09
2023-05-19T04:52:12.038Z,98757.63
2023-05-19T04:53:15.720Z,98748.94
2023-05-19T04:54:18.811Z,98754.75
2023-05-19T04:55:21.644Z,98748.97
2023-05-19T04:56:24.652Z,98755.47
2023-05-19T04:57:27.467Z,98754.62
2023-05-19T04:58:30.829Z,98754.91
2023-05-19T04:59:33.941Z,98759.97
2023-05-19T05:00:39.542Z,98754.19
2023-05-19T05:01:43.516Z,98755.78
2023-05-19T05:02:46.632Z,98746.22
2023-05-19T05:03:49.680Z,98748.53
2023-05-19T05:04:54.736Z,98755.62
2023-05-19T05:05:58.895Z,98747.78
2023-05-19T05:07:02.203Z,98743.72
2023-05-19T05:08:05.158Z,98749.09
2023-05-19T05:09:08.123Z,98750.53
2023-05-19T05:10:11.193Z,98750.09
2023-05-19T05:11:14.340Z,98748.34
2023-05-19T05:12:18.909Z,98751.25
2023-05-19T05:13:23.577Z,98753.28
2023-05-19T05:14:27.283Z,98754.72
2023-05-19T05:15:30.610Z,98753.56
2023-05-19T05:16:34.471Z,98758.50
2023-05-19T05:17:37.964Z,98752.41
2023-05-19T05:18:43.469Z,98767.19
2023-05-19T05:19:48.892Z,98758.19
2023-05-19T05:20:52.004Z,98756.47
2023-05-19T05:21:55.243Z,98758.75
2023-05-19T05:22:58.393Z,98762.53
2023-05-19T05:24:01.807Z,98767.44
2023-05-19T05:25:05.489Z,98769.19
2023-05-19T05:26:17.528Z,98764.38
2023-05-19T05:27:20.493Z,98776.91
2023-05-19T05:28:23.701Z,98769.38
2023-05-19T05:29:27.454Z,98770.22
2023-05-19T05:30:30.523Z,98769.62
2023-05-19T05:31:33.659Z,98775.31
2023-05-19T05:32:36.755Z,98764.25
2023-05-19T05:33:39.952Z,98769.19
2023-05-19T05:34:43.503Z,98769.47
2023-05-19T05:35:47.161Z,98760.16
2023-05-19T05:36:50.222Z,98761.72
2023-05-19T05:37:53.063Z,98770.16
2023-05-19T05:38:56.165Z,98766.81
2023-05-19T05:39:59.188Z,98765.94
2023-05-19T05:41:03.395Z,98770.16
2023-05-19T05:42:06.656Z,98770.28
2023-05-19T05:43:09.633Z,98764.59
2023-05-19T05:44:12.719Z,98771.00
2023-05-19T05:45:15.676Z,98767.63
2023-05-19T05:46:18.723Z,98778.81
2023-05-19T05:47:21.837Z,98778.97
2023-05-19T05:48:25.043Z,98775.00
2023-05-19T05:49:28.169Z,98772.84
2023-05-19T05:50:31.357Z,98770.50
2023-05-19T05:51:34.666Z,98767.28
2023-05-19T05:52:38.565Z,98775.25
2023-05-19T05:53:45.054Z,98768.50
2023-05-19T05:54:48.344Z,98769.81
2023-05-19T05:55:51.889Z,98778.50
2023-05-19T05:56:55.096Z,98775.59
2023-05-19T05:57:58.904Z,98774.41
2023-05-19T05:59:03.120Z,98772.78
2023-05-19T06:00:08.527Z,98767.97
2023-05-19T06:01:11.786Z,98770.06
2023-05-19T06:02:14.774Z,98770.22
2023-05-19T06:03:17.773Z,98776.59
2023-05-19T06:04:21.422Z,98773.84
2023-05-19T06:05:25.438Z,98769.69
2023-05-19T06:06:28.541Z,98780.03
2023-05-19T06:07:31.427Z,98771.63
2023-05-19T06:08:34.487Z,98771.34
2023-05-19T06:09:37.491Z,98771.78
2023-05-19T06:10:42.074Z,98774.44
2023-05-19T06:11:45.021Z,98777.19
2023-05-19T06:12:48.387Z,98781.41
2023-05-19T06:13:51.417Z,98783.56
2023-05-19T06:14:54.259Z,98786.34
2023-05-19T06:15:57.353Z,98783.56
2023-05-19T06:17:01.611Z,98785.56
2023-05-19T06:18:04.691Z,98783.72
2023-05-19T06:19:07.724Z,98782.25
2023-05-19T06:20:11.586Z,98782.53
2023-05-19T06:21:14.881Z,98786.22
2023-05-19T06:22:17.922Z,98785.62
2023-05-19T06:23:20.997Z,98780.09
2023-05-19T06:24:24.057Z,98786.09
2023-05-19T06:25:26.995Z,98786.09
2023-05-19T06:26:30.006Z,98785.62
2023-05-19T06:27:34.760Z,98791.28
2023-05-19T06:28:37.854Z,98791.72
2023-05-19T06:29:40.858Z,98791.63
2023-05-19T06:30:43.817Z,98791.03
2023-05-19T06:31:47.113Z,98792.94
2023-05-19T06:32:50.327Z,98792.34
2023-05-19T06:33:54.052Z,98802.94
2023-05-19T06:34:57.008Z,98798.13
2023-05-19T06:36:00.132Z,98801.88
2023-05-19T06:37:03.901Z,98802.16
2023-05-19T06:38:07.058Z,98807.34
2023-05-19T06:39:09.886Z,98808.44
2023-05-19T06:40:13.358Z,98805.72
2023-05-19T06:41:16.289Z,98807.69
2023-05-19T06:42:22.923Z,98799.03
2023-05-19T06:43:25.984Z,98800.12
2023-05-19T06:44:28.884Z,98802.56
2023-05-19T06:45:32.091Z,98800.25
2023-05-19T06:46:35.241Z,98802.22
2023-05-19T06:47:38.330Z,98808.34
2023-05-19T06:48:41.377Z,98808.47
2023-05-19T06:49:45.591Z,98810.63
2023-05-19T06:50:48.572Z,98811.37
2023-05-19T06:51:51.544Z,98818.59
2023-05-19T06:52:54.690Z,98810.41
2023-05-19T06:53:57.901Z,98824.75
2023-05-19T06:55:00.838Z,98821.53
2023-05-19T06:56:03.912Z,98816.72
2023-05-19T06:57:06.753Z,98819.50
2023-05-19T06:58:09.729Z,98824.31
2023-05-19T06:59:12.655Z,98826.09
2023-05-19T07:00:31.778Z,98825.66
2023-05-19T07:01:35.021Z,98820.94
2023-05-19T07:02:38.144Z,98827.53
2023-05-19T07:03:41.313Z,98831.28
2023-05-19T07:04:44.338Z,98826.59
2023-05-19T07:05:47.671Z,98826.31
2023-05-19T07:06:50.620Z,98822.25
2023-05-19T07:07:53.636Z,98829.72
2023-05-19T07:08:56.887Z,98820.53
2023-05-19T07:10:00.313Z,98825.59
2023-05-19T07:11:03.314Z,98828.50
2023-05-19T07:12:06.615Z,98825.53
2023-05-19T07:13:09.538Z,98823.12
2023-05-19T07:14:12.434Z,98822.03
2023-05-19T07:15:15.308Z,98824.44
2023-05-19T07:16:18.107Z,98827.34
2023-05-19T07:17:21.137Z,98823.47
2023-05-19T07:18:24.059Z,98823.94
2023-05-19T07:19:27.181Z,98829.25
2023-05-19T07:20:30.342Z,98823.34
2023-05-19T07:21:33.373Z,98824.91
2023-05-19T07:22:37.134Z,98822.84
2023-05-19T07:23:39.955Z,98827.78
2023-05-19T07:24:43.050Z,98816.91
2023-05-19T07:25:45.878Z,98822.59
2023-05-19T07:26:48.973Z,98817.88
2023-05-19T07:27:51.888Z,98823.31
2023-05-19T07:28:54.713Z,98817.06
2023-05-19T07:29:59.180Z,98814.28
2023-05-19T07:31:02.645Z,98821.28
2023-05-19T07:32:06.082Z,98822.09
2023-05-19T07:33:08.958Z,98825.09
2023-05-19T07:34:11.972Z,98827.13
2023-05-19T07:35:14.855Z,98823.00
2023-05-19T07:36:17.818Z,98817.78
2023-05-19T07:37:20.793Z,98813.72
2023-05-19T07:38:23.669Z,98822.50
2023-05-19T07:39:29.971Z,98821.16
2023-05-19T07:40:33.049Z,98817.91
2023-05-19T07:41:36.516Z,98812.44
2023-05-19T07:42:39.543Z,98813.41
2023-05-19T07:43:43.134Z,98809.19
2023-05-19T07:44:46.104Z,98810.00
2023-05-19T07:45:48.933Z,98812.28
2023-05-19T07:46:51.879Z,98811.69
2023-05-19T07:47:54.938Z,98812.28
2023-05-19T07:48:57.850Z,98820.97
2023-05-19T07:50:00.954Z,98815.75
2023-05-19T07:51:04.392Z,98815.25
2023-05-19T07:52:07.641Z,98822.47
2023-05-19T07:53:10.458Z,98811.34
2023-05-19T07:54:13.376Z,98810.63
2023-05-19T07:55:17.569Z,98816.53
2023-05-19T07:56:20.614Z,98817.84
2023-05-19T07:57:23.755Z,98810.34
2023-05-19T07:58:27.004Z,98810.25
2023-05-19T07:59:30.057Z,98805.75
2023-05-19T08:00:33.580Z,98817.16
2023-05-19T08:01:36.769Z,98805.34
2023-05-19T08:02:39.841Z,98815.62
2023-05-19T08:03:42.782Z,98812.63
2023-05-19T08:04:46.134Z,98807.19
2023-05-19T08:05:49.083Z,98803.72
2023-05-19T08:06:53.254Z,98813.91
2023-05-19T08:07:57.661Z,98807.44
2023-05-19T08:09:00.610Z,98803.94
2023-05-19T08:10:04.267Z,98804.66
2023-05-19T08:11:07.285Z,98806.22
2023-05-19T08:12:10.130Z,98808.50
2023-05-19T08:13:13.048Z,98805.59
2023-05-19T08:14:16.467Z,98803.25
2023-05-19T08:15:19.860Z,98801.78
2023-05-19T08:16:23.123Z,98797.47
2023-05-19T08:17:26.216Z,98793.31
2023-05-19T08:18:29.651Z,98795.38
2023-05-19T08:19:32.568Z,98794.25
2023-05-19T08:20:35.576Z,98791.47
2023-05-19T08:21:38.655Z,98792.19
2023-05-19T08:22:41.605Z,98801.25
2023-05-19T08:23:44.890Z,98790.53
2023-05-19T08:24:50.240Z,98797.75
2023-05-19T08:25:53.209Z,98795.38
2023-05-19T08:26:56.256Z,98792.69
2023-05-19T08:27:59.223Z,98804.53
2023-05-19T08:29:02.187Z,98802.97
2023-05-19T08:30:05.462Z,98797.63
2023-05-19T08:31:11.126Z,98789.59
2023-05-19T08:32:14.064Z,98804.22
2023-05-19T08:33:17.736Z,98804.94
2023-05-19T08:34:21.005Z,98800.00
2023-05-19T08:35:24.049Z,98795.66
2023-05-19T08:36:26.949Z,98793.22
2023-05-19T08:37:31.463Z,98787.53
2023-05-19T08:38:35.736Z,98792.38
2023-05-19T08:39:38.633Z,98792.50
2023-05-19T08:40:48.020Z,98796.50
2023-05-19T08:41:50.962Z,98797.84
2023-05-19T08:42:54.625Z,98789.28
2023-05-19T08:43:57.581Z,98794.97
2023-05-19T08:45:02.050Z,98794.13
2023-05-19T08:46:06.592Z,98796.91
2023-05-19T08:47:14.080Z,98790.31
2023-05-19T08:48:19.500Z,98791.72
2023-05-19T08:49:31.220Z,98790.63
2023-05-19T08:50:39.525Z,98790.84
2023-05-19T08:52:00.889Z,98790.72
2023-05-19T08:53:25.014Z,98786.53
2023-05-19T08:55:09.953Z,98796.56
2023-05-19T08:56:18.435Z,98793.44
2023-05-19T08:57:23.993Z,98794.16
2023-05-19T08:58:28.900Z,98794.00
2023-05-19T08:59:32.414Z,98790.72
2023-05-19T09:00:36.291Z,98797.19
2023-05-19T09:01:40.189Z,98793.44
2023-05-19T09:02:55.041Z,98796.22
2023-05-19T09:04:04.638Z,98789.81
2023-05-19T09:05:08.075Z,98791.25
2023-05-19T09:06:14.567Z,98794.81
2023-05-19T09:07:19.136Z,98788.69
2023-05-19T09:08:22.825Z,98795.22
2023-05-19T09:09:25.935Z,98783.94
2023-05-19T09:10:29.368Z,98783.94
2023-05-19T09:11:33.164Z,98792.69
2023-05-19T09:12:36.166Z,98794.25
2023-05-19T09:13:39.386Z,98796.56
2023-05-19T09:14:42.529Z,98796.56
2023-05-19T09:15:46.415Z,98794.19
2023-05-19T09:16:52.698Z,98795.66
2023-05-19T09:18:15.461Z,98793.88
2023-05-19T09:19:18.753Z,98796.53
2023-05-19T09:20:21.623Z,98787.34
2023-05-19T09:21:33.674Z,98785.12
2023-05-19T09:22:42.088Z,98787.25
2023-05-19T09:23:47.626Z,98780.28
2023-05-19T09:24:50.551Z,98782.34
2023-05-19T09:25:54.207Z,98788.22
2023-05-19T09:26:58.449Z,98779.41
2023-05-19T09:28:03.006Z,98789.66
2023-05-19T09:29:17.111Z,98783.44
2023-05-19T09:30:20.474Z,98786.47
2023-05-19T09:31:23.803Z,98781.25
2023-05-19T09:32:27.959Z,98779.75
2023-05-19T09:33:33.628Z,98779.38
2023-05-19T09:34:42.139Z,98789.47
2023-05-19T09:35:47.618Z,98785.06
2023-05-19T09:36:52.083Z,98785.00
2023-05-19T09:37:55.456Z,98783.31
2023-05-19T09:38:58.321Z,98778.81
2023-05-19T09:40:01.288Z,98785.59
2023-05-19T09:41:05.669Z,98785.50
2023-05-19T09:42:08.575Z,98788.09
2023-05-19T09:43:12.096Z,98793.69
2023-05-19T09:44:21.479Z,98786.41
2023-05-19T09:45:27.510Z,98783.91
2023-05-19T09:46:30.507Z,98776.19
2023-05-19T09:47:36.406Z,98781.03
2023-05-19T09:48:39.439Z,98774.03
2023-05-19T09:49:47.720Z,98776.19
2023-05-19T09:50:51.943Z,98774.09
2023-05-19T09:51:57.674Z,98777.09
2023-05-19T09:53:01.077Z,98779.59
2023-05-19T09:54:04.984Z,98772.31
2023-05-19T09:55:11.921Z,98774.84
2023-05-19T09:56:15.364Z,98778.94
2023-05-19T09:57:18.730Z,98775.44
2023-05-19T09:58:22.216Z,98770.41
2023-05-19T09:59:26.388Z,98769.53
2023-05-19T10:00:31.620Z,98773.94
2023-05-19T10:01:41.332Z,98773.81
2023-05-19T10:02:49.256Z,98771.69
2023-05-19T10:03:53.871Z,98765.31
2023-05-19T10:04:56.913Z,98762.88
2023-05-19T10:06:01.638Z,98768.81
2023-05-19T10:07:06.500Z,98761.78
2023-05-19T10:08:10.694Z,98766.41
2023-05-19T10:09:14.207Z,98759.34
2023-05-19T10:10:17.854Z,98764.88
2023-05-19T10:11:23.405Z,98757.91
2023-05-19T10:12:27.159Z,98754.69
2023-05-19T10:13:31.206Z,98742.78
2023-05-19T10:14:34.364Z,98740.53
2023-05-19T10:15:53.703Z,98748.41
2023-05-19T10:17:00.044Z,98742.63
2023-05-19T10:18:03.944Z,98749.78
2023-05-19T10:19:09.408Z,98741.91
2023-05-19T10:20:17.339Z,98740.72
2023-05-19T10:21:20.334Z,98746.25
2023-05-19T10:22:23.251Z,98743.63
2023-05-19T10:23:26.982Z,98741.03
2023-05-19T10:24:29.918Z,98748.34
2023-05-19T10:25:34.710Z,98746.62
2023-05-19T10:26:41.446Z,98742.94
2023-05-19T10:28:14.527Z,98739.59
2023-05-19T10:29:22.671Z,98732.91
2023-05-19T10:30:30.332Z,98739.22
2023-05-19T10:31:36.195Z,98737.53
2023-05-19T10:32:42.082Z,98737.75
2023-05-19T10:33:59.780Z,98737.38
2023-05-19T10:35:40.032Z,98742.75
2023-05-19T10:36:50.087Z,98742.94
2023-05-19T10:37:55.473Z,98741.03
2023-05-19T10:39:08.625Z,98734.94
2023-05-19T10:40:39.285Z,98745.31
2023-05-19T10:41:52.286Z,98740.19
2023-05-19T10:43:18.302Z,98736.19
2023-05-19T10:44:49.983Z,98745.38
2023-05-19T10:45:55.212Z,98735.81
2023-05-19T10:46:58.177Z,98731.97
2023-05-19T10:48:01.359Z,98736.59
2023-05-19T10:49:04.342Z,98728.22
2023-05-19T10:50:08.427Z,98740.50
2023-05-19T10:51:12.485Z,98735.47
2023-05-19T10:52:30.523Z,98732.31
2023-05-19T10:53:35.137Z,98722.00
2023-05-19T10:54:43.735Z,98722.56
2023-05-19T10:55:56.746Z,98726.13
2023-05-19T10:56:59.654Z,98732.19
2023-05-19T10:58:02.512Z,98729.88
2023-05-19T10:59:05.451Z,98729.66
2023-05-19T11:00:29.731Z,98726.69
2023-05-19T11:01:38.498Z,98730.00
2023-05-19T11:02:44.256Z,98720.53
2023-05-19T11:03:53.524Z,98727.19
2023-05-19T11:05:09.574Z,98717.84
2023-05-19T11:06:19.451Z,98722.00
2023-05-19T11:07:22.690Z,98725.72
2023-05-19T11:08:33.856Z,98714.75
2023-05-19T11:09:43.262Z,98717.44
2023-05-19T11:10:46.508Z,98713.66
2023-05-19T11:11:52.923Z,98720.63
2023-05-19T11:12:58.229Z,98720.09
2023-05-19T11:14:01.520Z,98713.37
2023-05-19T11:15:04.934Z,98716.16
2023-05-19T11:16:09.520Z,98718.25
2023-05-19T11:17:16.548Z,98717.66
2023-05-19T11:18:20.044Z,98717.69
2023-05-19T11:19:27.692Z,98715.66
2023-05-19T11:20:35.056Z,98721.19
2023-05-19T11:21:52.738Z,98724.09
2023-05-19T11:23:14.898Z,98713.56
2023-05-19T11:24:37.524Z,98706.69
2023-05-19T11:25:51.191Z,98721.09
2023-05-19T11:26:55.107Z,98718.56
2023-05-19T11:27:58.871Z,98713.31
2023-05-19T11:29:02.532Z,98713.47
2023-05-19T11:30:14.907Z,98713.09
2023-05-19T11:31:19.650Z,98708.69
2023-05-19T11:32:26.640Z,98708.56
2023-05-19T11:33:30.391Z,98715.84
2023-05-19T11:34:35.992Z,98712.09
2023-05-19T11:35:39.126Z,98713.56
2023-05-19T11:36:45.617Z,98710.56
2023-05-19T11:37:50.892Z,98707.09
2023-05-19T11:38:53.986Z,98706.69
2023-05-19T11:39:56.831Z,98720.75
2023-05-19T11:41:01.203Z,98717.56
2023-05-19T11:42:04.511Z,98721.72
2023-05-19T11:43:07.581Z,98721.56
2023-05-19T11:44:12.239Z,98718.94
2023-05-19T11:45:15.112Z,98714.31
2023-05-19T11:46:18.530Z,98720.47
2023-05-19T11:47:21.725Z,98719.25
2023-05-19T11:48:26.735Z,98713.97
2023-05-19T11:49:29.841Z,98716.16
2023-05-19T11:50:33.561Z,98718.72
2023-05-19T11:51:36.797Z,98712.63
2023-05-19T11:52:46.033Z,98719.87
2023-05-19T11:53:50.351Z,98716.06
2023-05-19T11:54:53.723Z,98716.19
2023-05-19T11:55:56.712Z,98719.41
2023-05-19T11:57:06.245Z,98715.78
2023-05-19T11:58:09.166Z,98718.16
2023-05-19T11:59:12.313Z,98714.22
2023-05-19T12:00:15.626Z,98708.66
2023-05-19T12:01:18.716Z,98710.44
2023-05-19T12:02:25.722Z,98718.25
2023-05-19T12:03:30.012Z,98707.75
2023-05-19T12:04:33.000Z,98709.28
2023-05-19T12:05:46.528Z,98713.81
2023-05-19T12:06:50.324Z,98713.81
2023-05-19T12:07:53.926Z,98718.06
2023-05-19T12:08:57.078Z,98708.41
2023-05-19T12:10:00.416Z,98706.84
2023-05-19T12:11:03.588Z,98710.59
2023-05-19T12:12:06.715Z,98708.03
2023-05-19T12:13:10.512Z,98705.34
2023-05-19T12:14:13.830Z,98710.97
2023-05-19T12:15:21.216Z,98707.97
2023-05-19T12:16:24.256Z,98702.59
2023-05-19T12:17:27.182Z,98706.19
2023-05-19T12:18:32.252Z,98702.50
2023-05-19T12:19:35.504Z,98698.28
2023-05-19T12:20:38.447Z,98704.66
2023-05-19T12:21:41.707Z,98699.28
2023-05-19T12:22:45.204Z,98693.81
2023-05-19T12:23:48.274Z,98693.81
2023-05-19T12:24:51.577Z,98689.72
2023-05-19T12:25:54.660Z,98693.13
2023-05-19T12:27:21.297Z,98685.13
2023-05-19T12:28:24.337Z,98694.94
2023-05-19T12:29:29.471Z,98685.53
2023-05-19T12:30:33.581Z,98686.47
2023-05-19T12:31:38.273Z,98678.22
2023-05-19T12:32:41.639Z,98678.44
2023-05-19T12:33:46.151Z,98678.03
2023-05-19T12:34:50.196Z,98685.16
2023-05-19T12:35:54.826Z,98671.84
2023-05-19T12:36:57.778Z,98668.03
2023-05-19T12:38:07.531Z,98666.66
2023-05-19T12:39:10.944Z,98667.53
2023-05-19T12:40:17.151Z,98661.22
2023-05-19T12:41:20.330Z,98671.38
2023-05-19T12:42:24.017Z,98660.09
2023-05-19T12:43:27.136Z,98653.25
2023-05-19T12:44:31.664Z,98662.38
2023-05-19T12:45:39.004Z,98656.72